Time;durP1;ratioP1;P1;durP2;ratioP2;P2;SDS_P1;SDS_P2;PMS_P1;PMS_P2;Temp;Humidity;BMP_temperature;BMP_pressure;BME280_temperature;BME280_humidity;BME280_pressure;Samples;Min_cycle;Max_cycle;Signal;HPM_P1;HPM_P2
2023/07/08 00:00:24;;;;;;;14.05;8.43;;;21.50;58.10;;;;;;5031064;28;20040;-75
2023/07/08 00:02:50;;;;;;;11.88;8.43;;;21.50;58.50;;;;;;5035967;28;20025;-75
2023/07/08 00:05:18;;;;;;;14.70;8.73;;;21.50;58.70;;;;;;5037992;28;20227;-76
2023/07/08 00:07:45;;;;;;;13.80;8.55;;;21.50;58.20;;;;;;5036222;28;20113;-75
2023/07/08 00:10:25;;;;;;;14.48;8.48;;;21.40;58.10;;;;;;5037712;28;20033;-74
2023/07/08 00:12:54;;;;;;;13.30;8.50;;;21.20;58.40;;;;;;5037437;28;20059;-76
2023/07/08 00:15:27;;;;;;;11.10;7.72;;;21.10;58.90;;;;;;5033008;28;20051;-74
2023/07/08 00:17:53;;;;;;;12.00;8.10;;;21.10;59.20;;;;;;5043269;28;20018;-76
2023/07/08 00:20:43;;;;;;;14.15;7.75;;;21.10;59.50;;;;;;5042380;28;20481;-73
2023/07/08 00:23:09;;;;;;;13.98;7.80;;;21.00;58.90;;;;;;5025465;28;20048;-75
2023/07/08 00:25:35;;;;;;;11.50;7.55;;;21.00;59.50;;;;;;5041817;28;20025;-75
2023/07/08 00:28:01;;;;;;;11.68;6.95;;;21.00;59.80;;;;;;5032060;28;20245;-75
2023/07/08 00:30:31;;;;;;;12.85;7.28;;;21.00;59.60;;;;;;5029642;28;20045;-76
2023/07/08 00:32:58;;;;;;;10.75;6.85;;;21.00;59.60;;;;;;5032752;28;20079;-75
2023/07/08 00:35:44;;;;;;;10.98;7.60;;;21.00;59.50;;;;;;5031412;28;20029;-75
2023/07/08 00:38:27;;;;;;;12.32;7.22;;;21.00;59.40;;;;;;5031627;28;20026;-76
2023/07/08 00:40:58;;;;;;;12.70;7.67;;;20.90;59.60;;;;;;5019641;28;20040;-75
2023/07/08 00:43:47;;;;;;;13.18;7.80;;;20.90;59.70;;;;;;5030878;28;20026;-74
2023/07/08 00:46:29;;;;;;;13.43;7.93;;;20.80;59.60;;;;;;5031471;28;20045;-77
2023/07/08 00:49:16;;;;;;;12.43;8.00;;;20.80;59.60;;;;;;5020985;28;20115;-76
2023/07/08 00:51:43;;;;;;;12.30;8.50;;;20.80;59.50;;;;;;5031425;28;20025;-75
2023/07/08 00:54:15;;;;;;;13.50;8.27;;;20.70;59.90;;;;;;5042571;28;20020;-74
2023/07/08 00:56:44;;;;;;;13.40;8.45;;;20.60;60.40;;;;;;5035617;28;20401;-74
2023/07/08 00:59:17;;;;;;;13.63;7.95;;;20.50;60.60;;;;;;5034373;28;20025;-75
2023/07/08 01:01:43;;;;;;;13.23;8.15;;;20.50;61.00;;;;;;5035731;28;20033;-75
2023/07/08 01:04:19;;;;;;;12.00;8.10;;;20.40;61.20;;;;;;5037426;28;20326;-74
2023/07/08 01:06:52;;;;;;;11.77;8.05;;;20.40;61.30;;;;;;5032154;28;20056;-75
2023/07/08 01:09:18;;;;;;;13.07;8.02;;;20.40;61.20;;;;;;5030694;28;20093;-74
2023/07/08 01:11:44;;;;;;;14.05;8.10;;;20.40;61.50;;;;;;5030700;28;20502;-75
2023/07/08 01:14:16;;;;;;;11.52;8.02;;;20.30;61.50;;;;;;5031880;28;20033;-75
2023/07/08 01:16:42;;;;;;;13.65;8.10;;;20.40;61.60;;;;;;5034793;28;20484;-74
2023/07/08 01:19:15;;;;;;;12.23;7.82;;;20.30;61.50;;;;;;5033101;28;20053;-75
2023/07/08 01:21:53;;;;;;;13.57;8.73;;;20.30;61.70;;;;;;5026476;28;20068;-73
2023/07/08 01:24:19;;;;;;;13.40;7.68;;;20.20;61.60;;;;;;5035603;28;20032;-74
2023/07/08 01:26:46;;;;;;;12.40;8.40;;;20.20;62.00;;;;;;5031761;28;20029;-74
2023/07/08 01:29:12;;;;;;;12.45;8.27;;;20.10;62.20;;;;;;5034403;28;20417;-75
2023/07/08 01:31:38;;;;;;;12.52;8.52;;;20.10;62.50;;;;;;5037794;28;20050;-75
2023/07/08 01:34:05;;;;;;;11.55;8.18;;;20.10;62.60;;;;;;5034110;28;20031;-75
2023/07/08 01:36:38;;;;;;;11.88;8.02;;;20.00;62.70;;;;;;5034926;28;20060;-74
2023/07/08 01:39:04;;;;;;;13.25;8.48;;;20.10;62.70;;;;;;5034477;28;20021;-74
2023/07/08 01:41:30;;;;;;;13.10;8.65;;;20.00;62.80;;;;;;5036261;28;20583;-74
2023/07/08 01:43:55;;;;;;;11.35;7.97;;;19.90;62.90;;;;;;5041205;28;20063;-74
2023/07/08 01:46:25;;;;;;;11.80;7.97;;;19.90;63.20;;;;;;5030753;28;20021;-75
2023/07/08 01:48:56;;;;;;;11.93;8.65;;;19.80;63.40;;;;;;5036712;28;20022;-75
2023/07/08 01:51:22;;;;;;;14.55;9.30;;;19.80;63.50;;;;;;5036269;28;20037;-75
2023/07/08 01:53:48;;;;;;;14.77;8.63;;;19.80;63.70;;;;;;5044119;28;20028;-76
2023/07/08 01:56:14;;;;;;;12.25;8.68;;;19.80;64.00;;;;;;5036911;28;20041;-77
2023/07/08 01:58:40;;;;;;;18.02;9.05;;;19.80;63.90;;;;;;5036009;28;20025;-76
2023/07/08 02:01:07;;;;;;;12.57;8.10;;;19.80;63.70;;;;;;5033654;28;20034;-77
2023/07/08 02:03:33;;;;;;;12.43;8.50;;;19.70;63.80;;;;;;5028204;28;20520;-75
2023/07/08 02:05:58;;;;;;;12.90;8.75;;;19.80;63.80;;;;;;5022665;28;20029;-75
2023/07/08 02:08:24;;;;;;;12.50;8.30;;;19.80;63.40;;;;;;5034168;28;20033;-75
2023/07/08 02:10:52;;;;;;;11.60;7.90;;;19.80;63.50;;;;;;5035524;28;20115;-75
2023/07/08 02:13:18;;;;;;;12.45;8.55;;;19.80;63.70;;;;;;5040737;28;20029;-77
2023/07/08 02:15:44;;;;;;;16.52;8.40;;;19.70;63.70;;;;;;5027292;28;20052;-74
2023/07/08 02:18:10;;;;;;;13.82;8.32;;;19.70;63.80;;;;;;5033297;28;20025;-75
2023/07/08 02:20:35;;;;;;;15.27;8.20;;;19.60;64.10;;;;;;5028804;28;20526;-75
2023/07/08 02:23:01;;;;;;;12.85;8.27;;;19.60;64.10;;;;;;5032938;28;20117;-75
2023/07/08 02:25:26;;;;;;;12.82;9.00;;;19.60;64.00;;;;;;5038845;28;20033;-74
2023/07/08 02:27:56;;;;;;;15.40;9.43;;;19.60;64.40;;;;;;5032119;28;20105;-76
2023/07/08 02:30:23;;;;;;;12.90;8.05;;;19.50;64.70;;;;;;5027097;28;20120;-74
2023/07/08 02:32:56;;;;;;;14.65;9.35;;;19.50;64.80;;;;;;5031210;28;20524;-74
2023/07/08 02:35:24;;;;;;;13.47;8.97;;;19.50;64.70;;;;;;5034259;28;20482;-77
2023/07/08 02:37:50;;;;;;;15.15;9.02;;;19.40;64.80;;;;;;5029768;28;20021;-75
2023/07/08 02:40:15;;;;;;;12.98;9.68;;;19.40;65.00;;;;;;5034322;28;20145;-75
2023/07/08 02:42:41;;;;;;;13.48;9.05;;;19.40;65.00;;;;;;5030752;28;20028;-76
2023/07/08 02:45:07;;;;;;;18.15;9.45;;;19.40;65.10;;;;;;5025107;28;20060;-75
2023/07/08 02:47:33;;;;;;;14.43;9.75;;;19.30;65.10;;;;;;5028414;28;20378;-74
2023/07/08 02:49:59;;;;;;;15.77;9.93;;;19.30;65.40;;;;;;5031472;28;20032;-75
2023/07/08 02:52:24;;;;;;;12.85;8.90;;;19.20;65.50;;;;;;5039556;28;20477;-75
2023/07/08 02:54:50;;;;;;;14.30;9.63;;;19.20;65.50;;;;;;5037740;28;20025;-75
2023/07/08 02:57:15;;;;;;;13.55;9.20;;;19.20;65.40;;;;;;5040891;28;20476;-75
2023/07/08 02:59:41;;;;;;;14.07;9.77;;;19.10;65.50;;;;;;5036331;28;20116;-74
2023/07/08 03:02:07;;;;;;;11.95;8.43;;;19.10;65.50;;;;;;5030966;28;20047;-74
2023/07/08 03:04:33;;;;;;;15.98;9.25;;;19.10;65.60;;;;;;5029325;28;20049;-74
2023/07/08 03:06:58;;;;;;;12.52;8.98;;;19.10;65.80;;;;;;5037325;28;20385;-75
2023/07/08 03:09:24;;;;;;;14.90;9.90;;;19.00;65.70;;;;;;5034856;28;20021;-74
2023/07/08 03:11:50;;;;;;;17.15;10.43;;;19.00;65.80;;;;;;5030468;28;20038;-74
2023/07/08 03:14:15;;;;;;;15.23;9.90;;;19.00;65.90;;;;;;5031958;28;20030;-74
2023/07/08 03:16:41;;;;;;;14.20;9.55;;;19.00;65.90;;;;;;5033798;28;20547;-75
2023/07/08 03:19:14;;;;;;;15.02;10.05;;;19.00;66.10;;;;;;5024968;28;20150;-77
2023/07/08 03:21:41;;;;;;;14.93;10.03;;;19.00;66.10;;;;;;5032432;28;20132;-75
2023/07/08 03:24:13;;;;;;;14.98;8.55;;;18.90;66.20;;;;;;5031120;28;20025;-75
2023/07/08 03:26:38;;;;;;;16.70;10.00;;;18.90;66.10;;;;;;5034340;28;20075;-74
2023/07/08 03:29:04;;;;;;;13.60;9.60;;;18.90;66.20;;;;;;5024307;28;20033;-74
2023/07/08 03:31:30;;;;;;;14.73;9.38;;;18.90;66.40;;;;;;5024664;28;20444;-74
2023/07/08 03:33:56;;;;;;;15.15;10.88;;;18.80;66.30;;;;;;5023287;28;20033;-74
2023/07/08 03:36:24;;;;;;;13.07;8.75;;;18.80;66.50;;;;;;5014732;28;20037;-74
2023/07/08 03:38:57;;;;;;;17.13;10.70;;;18.70;66.80;;;;;;5018370;28;20026;-76
2023/07/08 03:41:23;;;;;;;14.95;10.02;;;18.70;66.70;;;;;;5028521;28;20037;-75
2023/07/08 03:43:50;;;;;;;13.52;9.15;;;18.70;66.80;;;;;;5020428;28;20046;-75
2023/07/08 03:46:17;;;;;;;13.15;8.95;;;18.60;67.10;;;;;;5025998;28;20033;-74
2023/07/08 03:48:43;;;;;;;13.65;9.82;;;18.70;67.00;;;;;;5017615;28;20032;-73
2023/07/08 03:51:15;;;;;;;14.05;10.07;;;18.70;67.40;;;;;;5029633;28;20105;-74
2023/07/08 03:53:40;;;;;;;13.93;9.88;;;18.70;67.20;;;;;;5032389;28;20083;-73
2023/07/08 03:56:11;;;;;;;12.10;9.00;;;18.70;67.10;;;;;;5031040;28;20037;-74
2023/07/08 03:58:36;;;;;;;14.15;9.63;;;18.70;67.10;;;;;;5032396;28;20009;-74
2023/07/08 04:01:02;;;;;;;14.35;9.82;;;18.80;67.00;;;;;;5027583;28;20051;-73
2023/07/08 04:03:28;;;;;;;16.90;9.65;;;18.80;66.80;;;;;;5027709;28;20354;-75
2023/07/08 04:05:53;;;;;;;13.43;8.95;;;18.80;66.70;;;;;;5031567;28;20057;-73
2023/07/08 04:08:19;;;;;;;12.65;9.00;;;18.80;66.80;;;;;;5028839;28;20026;-75
2023/07/08 04:10:45;;;;;;;15.93;9.80;;;18.80;67.00;;;;;;5030739;28;20030;-74
2023/07/08 04:13:10;;;;;;;14.30;8.93;;;18.80;66.60;;;;;;5030434;28;20524;-75
2023/07/08 04:15:36;;;;;;;13.68;8.77;;;18.80;66.90;;;;;;5029322;28;20299;-76
2023/07/08 04:18:01;;;;;;;13.48;8.70;;;18.80;67.00;;;;;;5029195;28;20671;-74
2023/07/08 04:20:27;;;;;;;12.75;8.65;;;18.90;67.00;;;;;;5029349;28;20076;-74
2023/07/08 04:22:53;;;;;;;15.07;10.07;;;18.90;66.90;;;;;;5029800;28;20076;-74
2023/07/08 04:25:19;;;;;;;18.00;9.45;;;18.90;67.00;;;;;;5033427;28;20391;-76
2023/07/08 04:27:45;;;;;;;13.73;9.15;;;18.90;67.00;;;;;;5034090;28;20025;-74
2023/07/08 04:30:22;;;;;;;13.65;9.27;;;19.00;66.80;;;;;;5026351;28;20025;-75
2023/07/08 04:32:49;;;;;;;12.05;9.40;;;19.00;66.70;;;;;;5028500;28;20053;-74
2023/07/08 04:35:15;;;;;;;14.63;9.35;;;19.00;66.70;;;;;;5025438;28;20035;-75
2023/07/08 04:37:40;;;;;;;18.38;9.88;;;19.00;66.80;;;;;;5027063;28;20029;-74
2023/07/08 04:40:18;;;;;;;18.48;10.25;;;19.00;67.00;;;;;;5016290;28;20021;-75
2023/07/08 04:42:47;;;;;;;13.52;9.65;;;19.00;67.30;;;;;;5022915;28;20032;-75
2023/07/08 04:45:14;;;;;;;14.45;9.88;;;19.00;67.20;;;;;;5029151;28;20034;-74
2023/07/08 04:47:39;;;;;;;13.82;9.13;;;19.00;66.80;;;;;;5026879;28;20058;-75
2023/07/08 04:50:05;;;;;;;13.25;9.07;;;19.00;67.30;;;;;;5020315;28;20025;-74
2023/07/08 04:52:31;;;;;;;19.42;9.60;;;19.10;67.10;;;;;;5031878;28;20528;-75
2023/07/08 04:54:57;;;;;;;14.43;9.95;;;19.00;67.50;;;;;;5035927;28;20112;-75
2023/07/08 04:57:22;;;;;;;13.00;8.80;;;19.00;67.40;;;;;;5031647;28;20025;-75
2023/07/08 04:59:48;;;;;;;14.75;9.65;;;19.10;67.50;;;;;;5024207;28;20033;-74
2023/07/08 05:02:14;;;;;;;12.90;8.93;;;19.10;67.30;;;;;;5025442;28;20533;-75
2023/07/08 05:04:39;;;;;;;14.32;9.05;;;19.30;67.30;;;;;;5022596;28;20037;-75
2023/07/08 05:07:05;;;;;;;14.05;9.32;;;19.40;67.10;;;;;;5029271;28;20096;-75
2023/07/08 05:09:31;;;;;;;17.20;8.85;;;19.50;66.50;;;;;;5024017;28;20068;-75
2023/07/08 05:11:57;;;;;;;13.07;9.07;;;19.70;66.10;;;;;;5028478;28;20537;-75
2023/07/08 05:14:23;;;;;;;13.85;9.15;;;19.70;65.70;;;;;;5028259;28;20121;-74
2023/07/08 05:16:48;;;;;;;12.95;8.45;;;19.90;65.50;;;;;;5036135;28;20043;-75
2023/07/08 05:19:14;;;;;;;14.85;8.98;;;20.50;64.50;;;;;;5033119;28;20259;-75
2023/07/08 05:21:40;;;;;;;12.07;8.07;;;21.80;60.50;;;;;;5023572;28;20042;-74
2023/07/08 05:24:06;;;;;;;12.48;7.93;;;23.10;57.00;;;;;;5060772;28;20037;-75
2023/07/08 05:26:33;;;;;;;12.00;8.20;;;24.50;52.60;;;;;;5039815;28;20130;-75
2023/07/08 05:28:59;;;;;;;12.23;7.47;;;25.60;50.60;;;;;;5031554;28;20184;-75
2023/07/08 05:31:24;;;;;;;12.52;7.40;;;26.30;47.60;;;;;;5031871;28;20116;-76
2023/07/08 05:33:50;;;;;;;11.20;7.75;;;27.10;46.80;;;;;;5030421;28;20022;-76
2023/07/08 05:36:16;;;;;;;13.63;8.70;;;27.70;44.80;;;;;;5028200;28;20122;-75
2023/07/08 05:38:42;;;;;;;12.80;7.80;;;27.50;44.70;;;;;;5029835;28;20017;-76
2023/07/08 05:41:07;;;;;;;12.75;8.50;;;27.10;46.10;;;;;;5024176;28;20302;-75
2023/07/08 05:43:33;;;;;;;12.68;8.40;;;27.20;45.80;;;;;;5027786;28;20141;-74
2023/07/08 05:46:01;;;;;;;10.60;8.02;;;27.70;44.30;;;;;;5028548;28;20103;-74
2023/07/08 05:48:26;;;;;;;11.95;7.72;;;27.90;44.40;;;;;;5027069;28;20083;-74
2023/07/08 05:50:52;;;;;;;13.60;8.00;;;28.10;43.90;;;;;;5028506;28;20538;-74
2023/07/08 05:53:22;;;;;;;11.88;7.70;;;28.10;44.20;;;;;;5028592;28;20512;-74
2023/07/08 05:55:48;;;;;;;10.60;6.85;;;28.40;44.00;;;;;;5030268;28;20056;-74
2023/07/08 05:58:15;;;;;;;10.27;6.82;;;28.50;43.90;;;;;;5033413;28;20022;-74
2023/07/08 06:00:42;;;;;;;13.65;8.48;;;28.10;44.60;;;;;;5034178;28;20053;-74
2023/07/08 06:03:08;;;;;;;13.90;8.10;;;27.10;46.30;;;;;;5024282;28;20182;-74
2023/07/08 06:05:34;;;;;;;12.20;8.10;;;26.40;48.40;;;;;;5036151;28;20025;-74
2023/07/08 06:08:00;;;;;;;14.15;7.82;;;25.70;50.10;;;;;;5030728;28;20026;-75
2023/07/08 06:10:26;;;;;;;13.18;8.20;;;24.90;52.80;;;;;;5027026;28;20040;-74
2023/07/08 06:12:51;;;;;;;13.07;8.60;;;24.60;52.50;;;;;;5033381;28;20010;-74
2023/07/08 06:15:17;;;;;;;12.70;8.10;;;24.30;54.20;;;;;;5036244;28;20412;-74
2023/07/08 06:17:43;;;;;;;13.63;8.75;;;24.10;54.90;;;;;;5031102;28;20421;-75
2023/07/08 06:20:08;;;;;;;11.57;8.70;;;24.10;55.70;;;;;;5029581;28;20029;-74
2023/07/08 06:22:34;;;;;;;13.10;8.52;;;24.00;56.00;;;;;;5030499;28;20026;-75
2023/07/08 06:25:00;;;;;;;12.38;8.00;;;23.90;55.60;;;;;;5033437;28;20032;-75
2023/07/08 06:27:26;;;;;;;13.13;7.22;;;23.80;55.90;;;;;;5037631;28;20030;-74
2023/07/08 06:29:52;;;;;;;11.77;7.45;;;23.80;56.70;;;;;;5029308;28;20085;-75
2023/07/08 06:32:18;;;;;;;12.23;7.88;;;23.70;56.60;;;;;;5029432;28;20485;-74
2023/07/08 06:34:44;;;;;;;13.60;7.40;;;23.60;57.50;;;;;;5028909;28;20025;-75
2023/07/08 06:37:09;;;;;;;11.70;7.70;;;24.00;57.30;;;;;;5027947;28;20501;-75
2023/07/08 06:39:35;;;;;;;12.57;8.20;;;24.20;56.60;;;;;;5028903;28;20075;-75
2023/07/08 06:42:01;;;;;;;13.75;6.95;;;24.40;55.00;;;;;;5026337;28;20033;-75
2023/07/08 06:44:26;;;;;;;13.15;7.68;;;24.60;55.30;;;;;;5034003;28;20021;-75
2023/07/08 06:46:52;;;;;;;11.95;7.88;;;24.50;55.70;;;;;;5030027;28;20035;-75
2023/07/08 06:49:18;;;;;;;12.35;7.05;;;24.70;55.20;;;;;;5020018;28;20033;-75
2023/07/08 06:51:45;;;;;;;16.70;7.95;;;24.80;56.00;;;;;;5023309;28;20072;-74
2023/07/08 06:54:11;;;;;;;9.82;6.85;;;24.90;55.90;;;;;;5039579;28;20028;-74
2023/07/08 06:56:41;;;;;;;10.73;6.68;;;25.00;56.80;;;;;;5034734;28;20479;-75
2023/07/08 06:59:10;;;;;;;12.13;7.75;;;25.30;56.50;;;;;;5027181;28;20047;-74
2023/07/08 07:01:36;;;;;;;11.35;7.18;;;25.40;55.30;;;;;;5020290;28;20096;-74
2023/07/08 07:04:03;;;;;;;14.52;7.65;;;25.60;54.10;;;;;;5031536;28;20059;-74
2023/07/08 07:06:29;;;;;;;10.90;7.13;;;25.60;54.60;;;;;;5031101;28;20033;-74
2023/07/08 07:08:55;;;;;;;10.77;7.00;;;25.60;54.40;;;;;;5031362;28;20025;-74
2023/07/08 07:11:21;;;;;;;11.68;7.70;;;25.50;54.60;;;;;;5030730;28;20099;-75
2023/07/08 07:13:46;;;;;;;12.70;8.15;;;25.40;55.10;;;;;;5027685;28;20030;-74
2023/07/08 07:16:12;;;;;;;13.73;8.40;;;25.50;55.10;;;;;;5031112;28;20042;-74
2023/07/08 07:18:38;;;;;;;11.75;7.90;;;25.40;55.20;;;;;;5033842;28;20885;-75
2023/07/08 07:21:03;;;;;;;14.82;7.30;;;25.60;54.90;;;;;;5026974;28;20037;-75
2023/07/08 07:23:29;;;;;;;13.45;7.82;;;25.70;54.70;;;;;;5034774;28;20055;-75
2023/07/08 07:25:55;;;;;;;11.65;6.78;;;25.80;54.00;;;;;;5038658;28;20813;-75
2023/07/08 07:28:21;;;;;;;13.77;7.53;;;25.80;54.80;;;;;;5032983;28;20094;-75
2023/07/08 07:30:47;;;;;;;11.52;7.20;;;26.20;54.50;;;;;;5026817;28;20021;-76
2023/07/08 07:33:13;;;;;;;12.82;8.07;;;26.50;53.40;;;;;;5029601;28;20028;-75
2023/07/08 07:35:45;;;;;;;14.13;7.35;;;26.80;52.80;;;;;;5025877;28;20041;-76
2023/07/08 07:38:12;;;;;;;10.88;6.43;;;26.90;52.00;;;;;;5028701;28;20056;-76
2023/07/08 07:40:39;;;;;;;11.98;6.88;;;27.10;50.70;;;;;;5027410;28;20045;-75
2023/07/08 07:43:05;;;;;;;10.98;6.43;;;27.00;51.60;;;;;;5025348;28;20096;-75
2023/07/08 07:45:31;;;;;;;13.07;6.93;;;27.20;51.50;;;;;;5032258;28;20067;-75
2023/07/08 07:47:56;;;;;;;12.02;7.85;;;27.30;50.20;;;;;;5032223;28;20040;-75
2023/07/08 07:50:22;;;;;;;11.48;6.45;;;27.40;50.20;;;;;;5031404;28;20029;-76
2023/07/08 07:52:48;;;;;;;13.27;6.43;;;27.50;50.40;;;;;;5027927;28;20025;-76
2023/07/08 07:55:13;;;;;;;11.45;6.57;;;27.70;50.40;;;;;;5031017;28;20111;-76
2023/07/08 07:57:41;;;;;;;12.23;6.80;;;28.00;50.00;;;;;;5023758;28;20462;-75
2023/07/08 08:00:08;;;;;;;10.95;6.80;;;28.10;49.50;;;;;;5026264;28;20465;-75
2023/07/08 08:02:34;;;;;;;11.57;7.28;;;28.20;49.80;;;;;;5022507;28;20026;-75
2023/07/08 08:05:00;;;;;;;11.27;6.63;;;28.40;48.30;;;;;;5031694;28;20033;-75
2023/07/08 08:07:26;;;;;;;13.85;6.97;;;28.40;49.50;;;;;;5025539;28;20425;-76
2023/07/08 08:09:51;;;;;;;12.27;6.57;;;28.50;48.80;;;;;;5012840;28;20048;-75
2023/07/08 08:12:17;;;;;;;11.85;7.00;;;28.60;48.50;;;;;;5028127;28;20026;-75
2023/07/08 08:14:43;;;;;;;11.00;6.28;;;28.90;48.10;;;;;;5027905;28;20521;-75
2023/07/08 08:17:09;;;;;;;10.02;5.55;;;29.00;47.40;;;;;;5023784;28;20044;-75
2023/07/08 08:19:34;;;;;;;14.32;6.63;;;29.10;48.30;;;;;;5029847;28;20404;-75
2023/07/08 08:22:00;;;;;;;11.30;6.45;;;29.40;45.80;;;;;;5023533;28;20044;-75
2023/07/08 08:24:26;;;;;;;10.45;6.30;;;29.50;45.70;;;;;;5027674;28;20087;-75
2023/07/08 08:26:52;;;;;;;11.32;6.65;;;29.60;46.00;;;;;;5037857;28;20124;-75
2023/07/08 08:29:18;;;;;;;11.43;6.53;;;29.70;44.60;;;;;;5027672;28;20108;-75
2023/07/08 08:31:44;;;;;;;10.75;6.50;;;29.70;45.00;;;;;;5024682;28;20061;-75
2023/07/08 08:34:09;;;;;;;9.65;6.28;;;29.80;41.60;;;;;;5029720;28;20037;-76
2023/07/08 08:36:35;;;;;;;9.73;5.82;;;29.90;42.30;;;;;;5027189;28;20116;-75
2023/07/08 08:39:01;;;;;;;10.70;6.38;;;30.10;41.20;;;;;;5029036;28;20029;-76
2023/07/08 08:41:35;;;;;;;12.20;6.60;;;30.10;41.10;;;;;;5017252;28;20096;-75
2023/07/08 08:44:03;;;;;;;11.32;6.72;;;30.00;41.20;;;;;;5035105;28;20549;-76
2023/07/08 08:46:47;;;;;;;9.73;6.35;;;30.00;41.90;;;;;;5033395;28;20363;-76
2023/07/08 08:49:55;;;;;;;10.32;6.22;;;30.20;41.90;;;;;;5031759;28;20437;-74
2023/07/08 08:52:21;;;;;;;11.13;6.68;;;30.30;41.60;;;;;;4981559;28;20177;-75
2023/07/08 08:54:46;;;;;;;12.73;6.57;;;30.40;40.60;;;;;;5004338;28;20022;-76
2023/07/08 08:57:24;;;;;;;10.82;6.85;;;30.40;40.90;;;;;;5004700;28;20068;-74
2023/07/08 08:59:57;;;;;;;11.40;6.70;;;30.40;41.60;;;;;;5004941;28;20064;-73
2023/07/08 09:02:36;;;;;;;10.55;6.50;;;30.50;42.00;;;;;;5002320;28;20057;-74
2023/07/08 09:05:08;;;;;;;13.23;6.47;;;30.80;41.70;;;;;;5006110;28;20022;-75
2023/07/08 09:07:51;;;;;;;12.30;6.20;;;31.00;39.50;;;;;;5002720;28;20018;-74
2023/07/08 09:10:30;;;;;;;11.70;6.35;;;30.90;40.40;;;;;;5002155;28;20045;-75
2023/07/08 09:12:57;;;;;;;9.50;6.05;;;31.20;39.70;;;;;;5024280;28;20018;-74
2023/07/08 09:15:25;;;;;;;11.60;5.70;;;31.40;39.50;;;;;;5017971;28;20490;-75
2023/07/08 09:17:56;;;;;;;10.07;5.78;;;31.60;39.10;;;;;;5028143;28;20040;-74
2023/07/08 09:20:28;;;;;;;11.00;6.53;;;31.90;38.00;;;;;;5018292;28;20054;-75
2023/07/08 09:23:12;;;;;;;12.95;6.60;;;31.80;39.40;;;;;;5007722;28;20033;-74
2023/07/08 09:25:52;;;;;;;10.95;5.90;;;32.00;38.20;;;;;;5010234;28;20087;-74
2023/07/08 09:28:18;;;;;;;11.48;6.18;;;32.20;38.20;;;;;;5021047;28;20010;-75
2023/07/08 09:30:48;;;;;;;10.60;6.22;;;32.30;38.40;;;;;;5034538;28;20034;-75
2023/07/08 09:33:14;;;;;;;12.38;6.15;;;32.40;37.10;;;;;;5030190;28;20021;-74
2023/07/08 09:35:47;;;;;;;10.23;5.80;;;32.50;36.90;;;;;;5028435;28;20370;-74
2023/07/08 09:38:21;;;;;;;10.15;5.75;;;32.70;36.70;;;;;;5025224;28;20022;-75
2023/07/08 09:40:53;;;;;;;9.25;5.68;;;32.70;36.20;;;;;;5025399;28;20051;-74
2023/07/08 09:43:34;;;;;;;9.25;5.82;;;32.90;36.60;;;;;;5029108;28;20026;-76
2023/07/08 09:46:00;;;;;;;12.93;5.50;;;33.10;36.20;;;;;;5031242;28;20037;-74
2023/07/08 09:48:33;;;;;;;9.60;6.10;;;33.20;36.30;;;;;;5025378;28;20458;-74
2023/07/08 09:51:00;;;;;;;11.35;5.60;;;33.20;36.20;;;;;;5028351;28;20037;-74
2023/07/08 09:53:26;;;;;;;13.15;5.55;;;32.90;36.50;;;;;;5027717;28;20047;-75
2023/07/08 09:55:53;;;;;;;9.02;5.35;;;32.80;36.00;;;;;;5016426;28;20076;-75
2023/07/08 09:58:24;;;;;;;11.70;5.93;;;33.10;36.20;;;;;;5020177;28;20064;-76
2023/07/08 10:00:54;;;;;;;9.75;5.68;;;33.20;36.70;;;;;;5025812;28;20041;-75
2023/07/08 10:03:21;;;;;;;9.18;5.55;;;33.50;35.90;;;;;;5020424;28;20025;-75
2023/07/08 10:05:48;;;;;;;10.95;5.90;;;33.10;35.00;;;;;;5018915;28;20075;-75
2023/07/08 10:08:19;;;;;;;10.15;5.70;;;33.10;36.50;;;;;;5020923;28;20117;-75
2023/07/08 10:10:57;;;;;;;9.48;5.30;;;33.50;36.50;;;;;;5024732;28;20411;-75
2023/07/08 10:13:39;;;;;;;9.80;6.00;;;33.50;36.30;;;;;;5018966;28;20022;-74
2023/07/08 10:16:17;;;;;;;10.95;5.75;;;33.50;35.40;;;;;;5016641;28;20046;-75
2023/07/08 10:18:43;;;;;;;11.25;6.25;;;33.30;35.20;;;;;;5036203;28;20017;-74
2023/07/08 10:21:36;;;;;;;10.82;5.10;;;33.10;36.30;;;;;;5021208;28;20288;-75
2023/07/08 10:24:21;;;;;;;9.07;5.72;;;33.40;36.10;;;;;;5016477;28;20025;-75
2023/07/08 10:26:53;;;;;;;10.88;6.07;;;34.00;35.70;;;;;;5021624;28;20502;-75
2023/07/08 10:29:34;;;;;;;10.70;5.38;;;33.90;35.20;;;;;;5017185;28;20110;-76
2023/07/08 10:32:11;;;;;;;12.48;5.30;;;34.20;34.50;;;;;;5025363;28;20489;-75
2023/07/08 10:34:48;;;;;;;11.38;5.82;;;34.30;34.20;;;;;;5022344;28;20033;-75
2023/07/08 10:37:13;;;;;;;11.50;5.72;;;34.10;34.40;;;;;;5024425;28;20401;-74
2023/07/08 10:40:07;;;;;;;9.15;5.00;;;34.20;33.00;;;;;;5019985;28;20375;-75
2023/07/08 10:43:12;;;;;;;12.18;5.85;;;34.20;33.10;;;;;;5023078;28;20069;-75
2023/07/08 10:46:06;;;;;;;9.23;4.78;;;34.30;33.50;;;;;;5020192;28;20139;-74
2023/07/08 10:48:40;;;;;;;;;;;34.50;33.10;;;;;;5018774;28;20429;-75
2023/07/08 10:51:19;;;;;;;10.43;5.07;;;34.40;32.70;;;;;;5027112;28;19916;-74
2023/07/08 10:53:51;;;;;;;9.40;5.40;;;34.20;34.00;;;;;;5024118;28;20034;-75
2023/07/08 10:56:28;;;;;;;9.57;5.20;;;34.80;32.40;;;;;;5024422;28;20026;-75
2023/07/08 10:59:12;;;;;;;11.15;5.22;;;34.80;31.40;;;;;;5014364;28;20459;-75
2023/07/08 11:02:02;;;;;;;9.73;5.28;;;34.50;32.10;;;;;;5017852;28;20042;-75
2023/07/08 11:04:53;;;;;;;10.90;5.80;;;34.80;32.80;;;;;;5012898;28;20017;-75
2023/07/08 11:07:28;;;;;;;11.40;6.10;;;35.10;31.90;;;;;;5008503;28;20193;-75
2023/07/08 11:09:59;;;;;;;8.95;5.40;;;35.00;32.80;;;;;;5022462;28;20037;-75
2023/07/08 11:12:35;;;;;;;8.70;5.68;;;35.30;31.80;;;;;;5017842;28;20409;-74
2023/07/08 11:15:17;;;;;;;13.23;6.30;;;34.80;31.40;;;;;;5031457;28;20144;-75
2023/07/08 11:17:50;;;;;;;10.57;6.30;;;35.10;31.70;;;;;;5021236;28;20310;-75
2023/07/08 11:20:23;;;;;;;11.00;5.40;;;35.20;31.00;;;;;;5031181;28;20034;-74
2023/07/08 11:23:31;;;;;;;9.98;6.03;;;35.40;30.90;;;;;;5029253;28;20148;-74
2023/07/08 11:26:18;;;;;;;10.38;5.90;;;35.60;29.70;;;;;;5040603;28;20581;-73
2023/07/08 11:28:45;;;;;;;10.05;5.80;;;35.50;30.50;;;;;;5018401;28;20027;-74
2023/07/08 11:31:12;;;;;;;11.85;6.50;;;35.40;30.70;;;;;;5027149;28;20106;-74
2023/07/08 11:33:39;;;;;;;11.25;5.78;;;35.40;30.80;;;;;;5027537;28;20028;-74
2023/07/08 11:36:06;;;;;;;9.88;6.43;;;35.30;30.80;;;;;;5025441;28;20033;-74
2023/07/08 11:38:34;;;;;;;11.32;5.57;;;35.20;30.90;;;;;;5026745;28;20018;-74
2023/07/08 11:41:13;;;;;;;11.43;6.00;;;35.00;31.00;;;;;;5029745;28;20124;-75
2023/07/08 11:44:05;;;;;;;9.93;5.97;;;34.90;31.50;;;;;;5029210;28;20110;-74
2023/07/08 11:46:32;;;;;;;9.23;5.50;;;34.80;31.40;;;;;;5035020;28;20053;-75
2023/07/08 11:49:10;;;;;;;11.40;6.18;;;34.60;31.30;;;;;;5026879;28;20397;-74
2023/07/08 11:51:39;;;;;;;10.90;5.80;;;34.60;32.50;;;;;;5028034;28;20029;-75
2023/07/08 11:54:44;;;;;;;9.48;5.50;;;34.60;32.60;;;;;;5034382;28;20017;-73
2023/07/08 11:57:27;;;;;;;11.57;6.38;;;34.50;32.10;;;;;;5032053;28;20040;-75
2023/07/08 12:00:12;;;;;;;10.13;6.28;;;34.50;32.60;;;;;;5025652;28;20063;-74
2023/07/08 12:02:54;;;;;;;10.32;6.50;;;34.50;33.30;;;;;;5019911;28;20049;-75
2023/07/08 12:05:33;;;;;;;9.68;6.03;;;34.50;33.50;;;;;;5017755;28;20501;-75
2023/07/08 12:08:03;;;;;;;9.82;6.40;;;34.50;33.20;;;;;;5021219;28;20375;-75
2023/07/08 12:10:39;;;;;;;9.82;6.55;;;34.20;33.10;;;;;;5017969;28;20036;-74
2023/07/08 12:13:15;;;;;;;12.43;5.97;;;34.20;34.10;;;;;;5025898;28;20032;-74
2023/07/08 12:15:41;;;;;;;9.60;5.95;;;34.10;34.20;;;;;;5021079;28;20037;-74
2023/07/08 12:18:14;;;;;;;11.32;6.50;;;34.20;34.40;;;;;;5024383;28;20370;-74
2023/07/08 12:20:41;;;;;;;11.57;6.47;;;34.40;35.10;;;;;;5022521;28;20045;-74
2023/07/08 12:23:13;;;;;;;9.93;6.82;;;34.50;33.50;;;;;;5022657;28;20017;-74
2023/07/08 12:25:38;;;;;;;10.40;6.70;;;34.60;33.40;;;;;;5022179;28;20501;-74
2023/07/08 12:28:04;;;;;;;10.13;6.13;;;34.50;33.50;;;;;;5023136;28;20096;-75
2023/07/08 12:30:32;;;;;;;12.25;6.60;;;34.40;33.80;;;;;;5027535;28;20025;-73
2023/07/08 12:33:00;;;;;;;15.23;6.78;;;34.40;34.20;;;;;;5024546;28;20025;-74
2023/07/08 12:35:29;;;;;;;11.55;5.72;;;34.60;33.90;;;;;;5025028;28;20022;-73
2023/07/08 12:37:59;;;;;;;9.07;6.38;;;34.70;33.70;;;;;;5011090;28;20105;-75
2023/07/08 12:40:27;;;;;;;10.85;6.50;;;34.90;33.90;;;;;;5016350;28;20449;-74
2023/07/08 12:42:53;;;;;;;10.60;5.97;;;34.80;34.10;;;;;;5022116;28;20036;-75
2023/07/08 12:45:22;;;;;;;11.02;6.38;;;34.80;33.90;;;;;;5021352;28;20026;-75
2023/07/08 12:47:48;;;;;;;12.15;6.78;;;34.70;34.50;;;;;;5021025;28;20591;-74
2023/07/08 12:50:15;;;;;;;13.85;7.28;;;34.80;34.60;;;;;;5022577;28;20037;-74